createdAt,value
2022-11-29T00:00:33.503Z,101154.44
2022-11-29T00:03:37.467Z,101156.81
2022-11-29T00:06:40.071Z,101155.94
2022-11-29T00:09:42.553Z,101150.88
2022-11-29T00:12:46.728Z,101141.53
2022-11-29T00:15:49.157Z,101147.50
2022-11-29T00:18:52.512Z,101146.63
2022-11-29T00:21:55.047Z,101136.31
2022-11-29T00:24:57.211Z,101137.31
2022-11-29T00:27:59.752Z,101140.56
2022-11-29T00:31:12.232Z,101125.09
2022-11-29T00:34:14.942Z,101126.72
2022-11-29T00:37:17.549Z,101126.59
2022-11-29T00:40:20.183Z,101120.66
2022-11-29T00:43:22.323Z,101114.78
2022-11-29T00:46:25.354Z,101119.81
2022-11-29T00:49:27.641Z,101118.75
2022-11-29T00:52:30.143Z,101120.50
2022-11-29T00:55:32.420Z,101113.72
2022-11-29T00:58:38.162Z,101115.44
2022-11-29T01:01:40.508Z,101110.47
2022-11-29T01:04:43.357Z,101110.41
2022-11-29T01:07:45.830Z,101110.44
2022-11-29T01:10:48.402Z,101111.31
2022-11-29T01:13:51.343Z,101101.91
2022-11-29T01:16:54.226Z,101101.84
2022-11-29T01:19:56.449Z,101104.31
2022-11-29T01:22:59.063Z,101106.03
2022-11-29T01:26:02.880Z,101106.03
2022-11-29T01:29:05.429Z,101104.44
2022-11-29T01:32:07.656Z,101104.34
2022-11-29T01:35:10.306Z,101095.75
2022-11-29T01:38:12.660Z,101094.94
2022-11-29T01:41:19.439Z,101103.56
2022-11-29T01:44:21.629Z,101100.00
2022-11-29T01:47:24.087Z,101100.09
2022-11-29T01:50:26.348Z,101101.00
2022-11-29T01:53:29.241Z,101097.38
2022-11-29T01:56:33.536Z,101100.69
2022-11-29T01:59:37.305Z,101107.56
2022-11-29T02:02:45.828Z,101106.78
2022-11-29T02:05:50.376Z,101106.00
2022-11-29T02:08:52.686Z,101109.50
2022-11-29T02:12:13.985Z,101099.22
2022-11-29T02:15:22.639Z,101103.62
2022-11-29T02:18:35.585Z,101104.44
2022-11-29T02:21:40.930Z,101101.69
2022-11-29T02:25:02.269Z,101111.13
2022-11-29T02:28:04.562Z,101106.78
2022-11-29T02:31:25.778Z,101111.97
2022-11-29T02:34:47.100Z,101116.16
2022-11-29T02:37:55.822Z,101117.03
2022-11-29T02:41:17.001Z,101123.94
2022-11-29T02:44:31.607Z,101116.25
2022-11-29T02:47:33.877Z,101126.16
2022-11-29T02:50:46.580Z,101117.66
2022-11-29T02:54:07.564Z,101117.53
2022-11-29T02:57:16.280Z,101116.03
2022-11-29T03:00:20.301Z,101116.13
2022-11-29T03:03:46.412Z,101120.38
2022-11-29T03:06:54.298Z,101120.50
2022-11-29T03:10:02.618Z,101121.16
2022-11-29T03:13:09.158Z,101118.66
2022-11-29T03:16:23.511Z,101123.69
2022-11-29T03:19:40.994Z,101125.41
2022-11-29T03:22:46.321Z,101125.34
2022-11-29T03:25:55.136Z,101127.91
2022-11-29T03:29:09.531Z,101128.91
2022-11-29T03:32:16.149Z,101118.59
2022-11-29T03:35:48.076Z,101122.13
2022-11-29T03:38:51.205Z,101124.00
2022-11-29T03:42:00.389Z,101132.37
2022-11-29T03:45:08.918Z,101136.62
2022-11-29T03:48:21.855Z,101131.53
2022-11-29T03:51:47.971Z,101133.31
2022-11-29T03:55:13.760Z,101133.22
2022-11-29T03:58:19.307Z,101138.37
2022-11-29T04:01:21.904Z,101141.69
2022-11-29T04:04:36.903Z,101138.25
2022-11-29T04:07:49.890Z,101141.69
2022-11-29T04:10:52.593Z,101143.38
2022-11-29T04:14:14.690Z,101151.84
2022-11-29T04:17:35.846Z,101153.47
2022-11-29T04:20:53.466Z,101154.34
2022-11-29T04:24:00.090Z,101157.72
2022-11-29T04:27:20.791Z,101159.31
2022-11-29T04:30:24.623Z,101164.41
2022-11-29T04:33:30.077Z,101154.94
2022-11-29T04:36:52.859Z,101150.66
2022-11-29T04:40:11.775Z,101151.50
2022-11-29T04:43:31.149Z,101155.75
2022-11-29T04:46:48.701Z,101155.78
2022-11-29T04:49:54.118Z,101150.50
2022-11-29T04:53:25.309Z,101156.50
2022-11-29T04:56:45.605Z,101160.88
2022-11-29T05:00:17.504Z,101162.44
2022-11-29T05:03:25.435Z,101170.03
2022-11-29T05:06:32.930Z,101175.38
2022-11-29T05:09:35.432Z,101176.03
2022-11-29T05:12:59.657Z,101181.31
2022-11-29T05:16:14.160Z,101180.47
2022-11-29T05:19:33.552Z,101189.00
2022-11-29T05:22:40.632Z,101192.31
2022-11-29T05:25:59.628Z,101188.09
2022-11-29T05:29:10.362Z,101188.84
2022-11-29T05:32:33.609Z,101188.84
2022-11-29T05:35:36.066Z,101192.31
2022-11-29T05:38:57.179Z,101199.00
2022-11-29T05:42:19.938Z,101193.78
2022-11-29T05:45:25.261Z,101194.75
2022-11-29T05:48:37.734Z,101196.44
2022-11-29T05:52:03.494Z,101197.16
2022-11-29T05:55:15.382Z,101196.03
2022-11-29T05:58:47.238Z,101197.91
2022-11-29T06:02:04.210Z,101197.06
2022-11-29T06:05:16.940Z,101197.41
2022-11-29T06:08:57.935Z,101196.53
2022-11-29T06:12:06.791Z,101201.62
2022-11-29T06:15:13.726Z,101209.34
2022-11-29T06:18:23.685Z,101211.72
2022-11-29T06:21:45.414Z,101211.16
2022-11-29T06:24:56.533Z,101216.34
2022-11-29T06:28:17.737Z,101221.38
2022-11-29T06:31:38.157Z,101214.50
2022-11-29T06:34:52.907Z,101218.09
2022-11-29T06:37:57.977Z,101223.06
2022-11-29T06:41:02.429Z,101224.84
2022-11-29T06:44:05.388Z,101231.69
2022-11-29T06:47:10.453Z,101228.22
2022-11-29T06:50:34.425Z,101222.16
2022-11-29T06:53:45.705Z,101229.81
2022-11-29T06:56:51.183Z,101229.38
2022-11-29T07:00:03.883Z,101224.34
2022-11-29T07:03:16.975Z,101233.63
2022-11-29T07:06:27.343Z,101229.59
2022-11-29T07:09:34.714Z,101230.44
2022-11-29T07:12:37.002Z,101234.00
2022-11-29T07:16:06.055Z,101234.94
2022-11-29T07:19:08.267Z,101234.81
2022-11-29T07:22:22.173Z,101236.34
2022-11-29T07:25:36.627Z,101235.62
2022-11-29T07:28:59.003Z,101236.72
2022-11-29T07:32:04.122Z,101235.06
2022-11-29T07:35:06.628Z,101242.78
2022-11-29T07:38:15.759Z,101237.91
2022-11-29T07:41:24.825Z,101239.47
2022-11-29T07:44:29.969Z,101242.94
2022-11-29T07:47:35.718Z,101248.13
2022-11-29T07:50:39.222Z,101253.28
2022-11-29T07:53:43.151Z,101249.72
2022-11-29T07:56:45.751Z,101249.44
2022-11-29T07:59:48.335Z,101251.13
2022-11-29T08:02:50.827Z,101251.06
2022-11-29T08:05:53.330Z,101258.91
2022-11-29T08:08:57.511Z,101254.72
2022-11-29T08:11:59.993Z,101254.66
2022-11-29T08:15:02.372Z,101254.81
2022-11-29T08:18:05.818Z,101254.94
2022-11-29T08:21:08.182Z,101241.22
2022-11-29T08:24:10.642Z,101248.16
2022-11-29T08:27:12.917Z,101247.37
2022-11-29T08:30:18.662Z,101246.72
2022-11-29T08:33:20.925Z,101246.03
2022-11-29T08:36:23.389Z,101246.94
2022-11-29T08:39:25.622Z,101252.16
2022-11-29T08:42:28.088Z,101251.09
2022-11-29T08:45:30.339Z,101257.97
2022-11-29T08:48:32.870Z,101257.72
2022-11-29T08:51:35.139Z,101258.84
2022-11-29T08:54:37.643Z,101253.44
2022-11-29T08:57:40.909Z,101252.03
2022-11-29T09:00:46.847Z,101251.97
2022-11-29T09:04:07.087Z,101253.66
2022-11-29T09:07:09.642Z,101250.09
2022-11-29T09:10:12.242Z,101261.53
2022-11-29T09:13:14.755Z,101259.78
2022-11-29T09:16:18.260Z,101253.00
2022-11-29T09:19:20.845Z,101250.75
2022-11-29T09:22:23.063Z,101253.38
2022-11-29T09:25:26.183Z,101249.81
2022-11-29T09:28:28.444Z,101240.37
2022-11-29T09:31:32.117Z,101244.53
2022-11-29T09:34:34.465Z,101240.91
2022-11-29T09:37:37.041Z,101235.06
2022-11-29T09:40:46.853Z,101246.31
2022-11-29T09:44:01.145Z,101246.31
2022-11-29T09:47:06.106Z,101242.88
2022-11-29T09:50:11.487Z,101241.34
2022-11-29T09:53:32.880Z,101242.34
2022-11-29T09:56:35.424Z,101239.03
2022-11-29T09:59:39.655Z,101239.88
2022-11-29T10:02:47.736Z,101239.94
2022-11-29T10:05:53.481Z,101233.78
2022-11-29T10:08:58.565Z,101233.22
2022-11-29T10:12:13.394Z,101225.66
2022-11-29T10:15:24.109Z,101215.47
2022-11-29T10:18:38.485Z,101221.47
2022-11-29T10:21:43.126Z,101213.88
2022-11-29T10:24:49.213Z,101207.00
2022-11-29T10:27:51.879Z,101207.00
2022-11-29T10:30:55.975Z,101212.41
2022-11-29T10:34:00.563Z,101207.09
2022-11-29T10:37:03.150Z,101209.00
2022-11-29T10:40:10.021Z,101210.69
2022-11-29T10:43:12.891Z,101207.22
2022-11-29T10:46:25.381Z,101196.16
2022-11-29T10:49:28.445Z,101195.06
2022-11-29T10:52:30.635Z,101193.69
2022-11-29T10:55:37.250Z,101193.75
2022-11-29T10:58:54.623Z,101187.59
2022-11-29T11:01:57.539Z,101192.69
2022-11-29T11:05:00.554Z,101182.44
2022-11-29T11:08:05.447Z,101185.69
2022-11-29T11:11:08.264Z,101189.84
2022-11-29T11:14:33.007Z,101186.37
2022-11-29T11:17:37.638Z,101183.88
2022-11-29T11:20:41.718Z,101181.44
2022-11-29T11:23:53.414Z,101191.75
2022-11-29T11:26:56.473Z,101188.41
2022-11-29T11:29:59.194Z,101180.66
2022-11-29T11:33:16.806Z,101180.78
2022-11-29T11:36:27.393Z,101182.50
2022-11-29T11:39:32.245Z,101184.28
2022-11-29T11:42:38.018Z,101182.50
2022-11-29T11:45:40.461Z,101190.00
2022-11-29T11:48:42.986Z,101188.47
2022-11-29T11:51:45.565Z,101180.72
2022-11-29T11:54:51.354Z,101176.41
2022-11-29T11:58:09.325Z,101178.25
2022-11-29T12:01:12.589Z,101181.63
2022-11-29T12:04:17.100Z,101175.56
2022-11-29T12:07:51.889Z,101174.59
2022-11-29T12:10:52.425Z,101183.97
2022-11-29T12:13:56.885Z,101182.22
2022-11-29T12:17:15.440Z,101180.47
2022-11-29T12:20:21.017Z,101183.00
2022-11-29T12:23:29.110Z,101174.38
2022-11-29T12:30:01.846Z,101175.25
2022-11-29T12:33:23.741Z,101177.00
2022-11-29T12:36:55.567Z,101174.38
2022-11-29T12:40:05.147Z,101171.88
2022-11-29T12:43:13.389Z,101165.97
2022-11-29T12:46:22.863Z,101167.78
2022-11-29T12:49:25.629Z,101168.75
2022-11-29T12:52:48.292Z,101168.75
2022-11-29T12:56:00.220Z,101157.59
2022-11-29T12:59:09.502Z,101161.06
2022-11-29T13:02:11.945Z,101162.81
2022-11-29T13:05:19.840Z,101166.28
2022-11-29T13:08:22.457Z,101158.56
2022-11-29T13:11:29.641Z,101160.38
2022-11-29T13:14:43.398Z,101163.03
2022-11-29T13:17:55.391Z,101163.81
2022-11-29T13:20:57.922Z,101164.66
2022-11-29T13:24:10.100Z,101153.59
2022-11-29T13:27:15.995Z,101155.34
2022-11-29T13:30:20.337Z,101157.84
2022-11-29T13:33:34.460Z,101154.38
2022-11-29T13:36:42.807Z,101162.16
2022-11-29T13:40:01.864Z,101156.09
2022-11-29T13:43:10.328Z,101157.78
2022-11-29T13:46:31.637Z,101162.94
2022-11-29T13:49:52.980Z,101160.34
2022-11-29T13:53:03.603Z,101155.16
2022-11-29T13:56:05.959Z,101159.44
2022-11-29T13:59:15.011Z,101156.75
2022-11-29T14:02:28.706Z,101156.72
2022-11-29T14:05:38.371Z,101160.19
2022-11-29T14:09:17.374Z,101158.59
2022-11-29T14:12:38.346Z,101165.34
2022-11-29T14:15:41.177Z,101162.72
2022-11-29T14:18:48.884Z,101163.53
2022-11-29T14:22:03.108Z,101160.16
2022-11-29T14:25:49.848Z,101160.91
2022-11-29T14:28:44.828Z,101160.00
2022-11-29T14:31:48.660Z,101155.75
2022-11-29T14:34:55.247Z,101155.78
2022-11-29T14:38:03.919Z,101154.12
2022-11-29T14:41:21.762Z,101154.00
2022-11-29T14:44:29.974Z,101160.09
2022-11-29T14:47:47.954Z,101158.38
2022-11-29T14:51:06.954Z,101166.13
2022-11-29T14:54:09.223Z,101156.66
2022-11-29T14:57:30.234Z,101157.47
2022-11-29T15:00:47.843Z,101159.97
2022-11-29T15:03:51.101Z,101157.44
2022-11-29T15:06:55.847Z,101154.03
2022-11-29T15:10:04.277Z,101166.03
2022-11-29T15:13:09.274Z,101156.66
2022-11-29T15:16:36.465Z,101165.16
2022-11-29T15:19:54.077Z,101158.34
2022-11-29T15:22:59.569Z,101166.88
2022-11-29T15:26:01.875Z,101155.81
2022-11-29T15:29:19.477Z,101159.31
2022-11-29T15:32:23.627Z,101166.16
2022-11-29T15:35:26.579Z,101162.69
2022-11-29T15:38:28.783Z,101150.59
2022-11-29T15:41:34.736Z,101156.56
2022-11-29T15:44:37.071Z,101157.44
2022-11-29T15:47:39.542Z,101166.88
2022-11-29T15:50:45.826Z,101165.09
2022-11-29T15:54:00.362Z,101170.16
2022-11-29T15:57:16.473Z,101162.41
2022-11-29T16:00:21.604Z,101170.25
2022-11-29T16:03:25.947Z,101173.75
2022-11-29T16:06:41.622Z,101161.78
2022-11-29T16:09:48.749Z,101160.09
2022-11-29T16:12:51.013Z,101150.59
2022-11-29T16:16:22.967Z,101166.84
2022-11-29T16:19:28.142Z,101187.34
2022-11-29T16:22:32.178Z,101176.91
2022-11-29T16:25:37.590Z,101176.97
2022-11-29T16:28:45.309Z,101174.47
2022-11-29T16:31:47.553Z,101175.31
2022-11-29T16:34:50.305Z,101182.97
2022-11-29T16:37:52.677Z,101174.47
2022-11-29T16:41:21.423Z,101183.88
2022-11-29T16:44:36.042Z,101181.31
2022-11-29T16:47:47.704Z,101193.16
2022-11-29T16:51:20.881Z,101189.03
2022-11-29T16:54:24.793Z,101182.87
2022-11-29T16:57:28.350Z,101189.75
2022-11-29T17:00:32.355Z,101191.44
2022-11-29T17:03:34.600Z,101199.22
2022-11-29T17:06:37.148Z,101197.41
2022-11-29T17:09:39.656Z,101205.22
2022-11-29T17:12:47.852Z,101198.38
2022-11-29T17:15:50.605Z,101203.47
2022-11-29T17:18:53.773Z,101209.38
2022-11-29T17:21:56.325Z,101207.81
2022-11-29T17:24:58.752Z,101216.41
2022-11-29T17:28:01.118Z,101225.81
2022-11-29T17:31:10.738Z,101225.03
2022-11-29T17:34:13.058Z,101223.25
2022-11-29T17:37:15.594Z,101222.47
2022-11-29T17:40:17.972Z,101219.09
2022-11-29T17:43:20.447Z,101221.62
2022-11-29T17:46:26.842Z,101225.16
2022-11-29T17:49:29.413Z,101226.00
2022-11-29T17:52:31.722Z,101226.91
2022-11-29T17:55:34.249Z,101217.44
2022-11-29T17:58:37.180Z,101223.50
2022-11-29T18:01:40.060Z,101216.66
2022-11-29T18:04:43.950Z,101227.78
2022-11-29T18:07:58.294Z,101220.84
2022-11-29T18:11:08.026Z,101218.38
2022-11-29T18:14:13.564Z,101221.72
2022-11-29T18:17:16.726Z,101214.94
2022-11-29T18:20:18.907Z,101217.56
2022-11-29T18:23:21.503Z,101212.34
2022-11-29T18:26:24.683Z,101221.81
2022-11-29T18:29:28.681Z,101221.84
2022-11-29T18:32:33.217Z,101227.00
2022-11-29T18:35:35.882Z,101223.63
2022-11-29T18:38:39.739Z,101222.63
2022-11-29T18:41:43.837Z,101227.81
2022-11-29T18:44:46.451Z,101230.34
2022-11-29T18:47:49.159Z,101226.97
2022-11-29T18:50:51.492Z,101231.25
2022-11-29T18:53:54.068Z,101229.50
2022-11-29T18:56:56.419Z,101227.84
2022-11-29T18:59:58.982Z,101226.94
2022-11-29T19:03:01.300Z,101238.06
2022-11-29T19:06:09.714Z,101234.63
2022-11-29T19:09:13.661Z,101236.31
2022-11-29T19:12:16.130Z,101243.09
2022-11-29T19:15:19.086Z,101232.78
2022-11-29T19:18:22.210Z,101237.88
2022-11-29T19:21:25.215Z,101242.22
2022-11-29T19:24:28.405Z,101236.22
2022-11-29T19:27:30.787Z,101242.28
2022-11-29T19:30:34.233Z,101229.53
2022-11-29T19:33:37.976Z,101232.97
2022-11-29T19:36:43.335Z,101238.88
2022-11-29T19:39:46.408Z,101244.09
2022-11-29T19:42:49.526Z,101241.53
2022-11-29T19:45:53.273Z,101242.41
2022-11-29T19:48:56.928Z,101237.09
2022-11-29T19:51:59.299Z,101239.66
2022-11-29T19:55:01.854Z,101237.91
2022-11-29T19:58:04.136Z,101243.03
2022-11-29T20:01:07.824Z,101243.03
2022-11-29T20:04:11.546Z,101244.72
2022-11-29T20:07:13.815Z,101241.31
2022-11-29T20:10:16.562Z,101237.97
2022-11-29T20:13:18.798Z,101231.03
2022-11-29T20:16:22.070Z,101231.78
2022-11-29T20:19:24.366Z,101230.84
2022-11-29T20:22:26.843Z,101231.72
2022-11-29T20:25:29.554Z,101230.03
2022-11-29T20:28:32.138Z,101223.13
2022-11-29T20:31:35.532Z,101229.13
2022-11-29T20:34:40.214Z,101230.75
2022-11-29T20:37:49.401Z,101226.63
2022-11-29T20:41:02.643Z,101225.72
2022-11-29T20:44:05.465Z,101218.81
2022-11-29T20:47:16.194Z,101231.81
2022-11-29T20:50:23.236Z,101232.66
2022-11-29T20:53:26.086Z,101228.38
2022-11-29T20:56:28.338Z,101230.94
2022-11-29T20:59:30.804Z,101222.22
2022-11-29T21:02:33.088Z,101222.41
2022-11-29T21:05:37.540Z,101213.09
2022-11-29T21:08:39.865Z,101217.19
2022-11-29T21:11:42.390Z,101217.19
2022-11-29T21:14:45.135Z,101218.16
2022-11-29T21:17:47.889Z,101230.13
2022-11-29T21:21:03.130Z,101224.16
2022-11-29T21:24:06.739Z,101224.97
2022-11-29T21:27:13.409Z,101230.94
2022-11-29T21:30:20.426Z,101221.62
2022-11-29T21:33:22.801Z,101233.59
2022-11-29T21:36:25.375Z,101229.34
2022-11-29T21:39:32.124Z,101230.25
2022-11-29T21:42:34.701Z,101232.75
2022-11-29T21:45:36.901Z,101233.47
2022-11-29T21:48:42.224Z,101234.44
2022-11-29T21:51:44.400Z,101240.50
2022-11-29T21:54:47.043Z,101237.97
2022-11-29T21:57:49.532Z,101229.38
2022-11-29T22:00:52.850Z,101231.03
2022-11-29T22:03:55.802Z,101234.47
2022-11-29T22:06:58.018Z,101232.81
2022-11-29T22:10:08.554Z,101225.16
2022-11-29T22:13:15.306Z,101224.25
2022-11-29T22:16:18.331Z,101225.84
2022-11-29T22:19:26.742Z,101225.84
2022-11-29T22:22:30.173Z,101224.97
2022-11-29T22:25:32.390Z,101230.94
2022-11-29T22:28:35.169Z,101230.25
2022-11-29T22:31:37.557Z,101222.41
2022-11-29T22:34:40.124Z,101227.56
2022-11-29T22:37:42.337Z,101231.13
2022-11-29T22:40:44.945Z,101229.25
2022-11-29T22:43:47.294Z,101224.28
2022-11-29T22:46:49.900Z,101217.41
2022-11-29T22:49:52.197Z,101217.38
2022-11-29T22:52:54.648Z,101219.19
2022-11-29T22:55:58.055Z,101214.88
2022-11-29T22:59:00.718Z,101226.03
2022-11-29T23:02:03.172Z,101210.69
2022-11-29T23:05:05.874Z,101208.09
2022-11-29T23:08:08.130Z,101209.75
2022-11-29T23:11:13.149Z,101204.62
2022-11-29T23:14:15.434Z,101207.22
2022-11-29T23:17:17.944Z,101210.66
2022-11-29T23:20:20.310Z,101199.59
2022-11-29T23:23:22.842Z,101192.75
2022-11-29T23:26:37.449Z,101183.31
2022-11-29T23:29:40.030Z,101202.19
2022-11-29T23:32:42.328Z,101200.56
2022-11-29T23:35:44.935Z,101186.84
2022-11-29T23:38:47.952Z,101184.19
2022-11-29T23:41:50.422Z,101179.13
2022-11-29T23:44:52.709Z,101179.06
2022-11-29T23:47:56.098Z,101185.94
2022-11-29T23:50:58.318Z,101185.06
2022-11-29T23:54:00.849Z,101196.19
2022-11-29T23:57:03.015Z,101195.34
